createdAt,value
2023-04-10T00:01:35.633Z,11.02
2023-04-10T00:04:08.318Z,11.00
2023-04-10T00:06:41.757Z,10.98
2023-04-10T00:09:14.444Z,10.92
2023-04-10T00:11:46.785Z,10.83
2023-04-10T00:14:23.225Z,10.77
2023-04-10T00:16:55.617Z,10.74
2023-04-10T00:19:28.242Z,10.69
2023-04-10T00:22:00.684Z,10.66
2023-04-10T00:24:32.862Z,10.60
2023-04-10T00:27:05.699Z,10.44
2023-04-10T00:29:38.180Z,10.48
2023-04-10T00:32:10.822Z,10.44
2023-04-10T00:34:43.112Z,10.39
2023-04-10T00:37:15.286Z,10.34
2023-04-10T00:39:47.880Z,10.31
2023-04-10T00:42:20.142Z,10.26
2023-04-10T00:44:52.819Z,10.20
2023-04-10T00:47:25.338Z,10.18
2023-04-10T00:49:58.163Z,10.15
2023-04-10T00:52:31.167Z,10.05
2023-04-10T00:55:04.007Z,10.08
2023-04-10T00:57:37.012Z,10.04
2023-04-10T01:00:11.695Z,10.01
2023-04-10T01:02:44.250Z,9.98
2023-04-10T01:05:17.508Z,9.92
2023-04-10T01:08:13.792Z,9.88
2023-04-10T01:10:53.124Z,9.83
2023-04-10T01:13:33.045Z,9.78
2023-04-10T01:16:10.813Z,9.68
2023-04-10T01:18:49.909Z,9.70
2023-04-10T01:21:24.613Z,9.67
2023-04-10T01:24:17.224Z,9.60
2023-04-10T01:27:11.058Z,9.58
2023-04-10T01:29:47.713Z,9.60
2023-04-10T01:32:23.888Z,9.62
2023-04-10T01:34:58.475Z,9.62
2023-04-10T01:37:33.681Z,9.60
2023-04-10T01:40:10.494Z,9.60
2023-04-10T01:42:47.574Z,9.63
2023-04-10T01:45:22.260Z,9.65
2023-04-10T01:47:57.292Z,9.79
2023-04-10T01:50:31.314Z,9.74
2023-04-10T01:53:06.460Z,9.77
2023-04-10T01:55:40.129Z,9.79
2023-04-10T01:58:12.739Z,9.82
2023-04-10T02:00:46.126Z,9.84
2023-04-10T02:03:19.547Z,9.84
2023-04-10T02:06:03.664Z,9.88
2023-04-10T02:08:41.288Z,9.90
2023-04-10T02:11:21.555Z,9.94
2023-04-10T02:13:59.214Z,9.96
2023-04-10T02:16:33.107Z,9.95
2023-04-10T02:19:06.957Z,9.92
2023-04-10T02:21:40.054Z,9.92
2023-04-10T02:24:13.077Z,9.92
2023-04-10T02:26:49.712Z,9.83
2023-04-10T02:29:22.504Z,9.89
2023-04-10T02:31:54.619Z,9.89
2023-04-10T02:34:27.304Z,9.85
2023-04-10T02:36:59.553Z,9.89
2023-04-10T02:39:35.188Z,9.88
2023-04-10T02:42:07.515Z,9.85
2023-04-10T02:44:42.497Z,9.83
2023-04-10T02:47:16.023Z,9.79
2023-04-10T02:49:51.068Z,9.74
2023-04-10T02:52:23.754Z,9.67
2023-04-10T02:54:56.549Z,9.63
2023-04-10T02:57:31.848Z,9.70
2023-04-10T03:00:04.820Z,9.66
2023-04-10T03:02:54.596Z,9.65
2023-04-10T03:05:27.344Z,9.58
2023-04-10T03:07:59.916Z,9.62
2023-04-10T03:10:32.784Z,9.57
2023-04-10T03:13:04.885Z,9.57
2023-04-10T03:15:37.236Z,9.53
2023-04-10T03:18:09.744Z,9.53
2023-04-10T03:20:44.950Z,9.42
2023-04-10T03:23:17.688Z,9.27
2023-04-10T03:25:55.224Z,9.47
2023-04-10T03:28:30.905Z,9.42
2023-04-10T03:31:04.184Z,9.45
2023-04-10T03:33:38.960Z,9.43
2023-04-10T03:36:12.660Z,9.37
2023-04-10T03:38:44.988Z,9.37
2023-04-10T03:41:17.002Z,9.34
2023-04-10T03:43:49.236Z,9.33
2023-04-10T03:46:22.816Z,9.31
2023-04-10T03:48:55.608Z,9.33
2023-04-10T03:51:28.380Z,9.32
2023-04-10T03:54:01.444Z,9.32
2023-04-10T03:56:34.545Z,9.30
2023-04-10T03:59:06.993Z,9.31
2023-04-10T04:01:44.762Z,9.31
2023-04-10T04:04:17.952Z,9.32
2023-04-10T04:07:11.253Z,9.31
2023-04-10T04:10:03.689Z,9.30
2023-04-10T04:12:52.396Z,9.29
2023-04-10T04:15:40.815Z,9.29
2023-04-10T04:18:42.791Z,9.28
2023-04-10T04:21:35.476Z,9.26
2023-04-10T04:24:24.590Z,9.27
2023-04-10T04:27:10.225Z,9.27
2023-04-10T04:30:03.386Z,9.26
2023-04-10T04:32:59.911Z,9.26
2023-04-10T04:36:06.448Z,9.25
2023-04-10T04:38:57.255Z,9.25
2023-04-10T04:41:48.006Z,9.25
2023-04-10T04:44:39.048Z,9.25
2023-04-10T04:47:27.869Z,9.26
2023-04-10T04:50:13.757Z,9.26
2023-04-10T04:53:06.684Z,9.26
2023-04-10T04:55:59.452Z,9.26
2023-04-10T04:58:48.638Z,9.28
2023-04-10T05:01:39.489Z,9.33
2023-04-10T05:04:32.398Z,9.33
2023-04-10T05:07:21.676Z,9.29
2023-04-10T05:09:56.928Z,9.31
2023-04-10T05:12:52.126Z,9.36
2023-04-10T05:15:45.752Z,9.38
2023-04-10T05:18:37.815Z,9.42
2023-04-10T05:21:20.739Z,9.38
2023-04-10T05:24:12.975Z,9.47
2023-04-10T05:26:53.328Z,9.51
2023-04-10T05:29:46.113Z,9.52
2023-04-10T05:32:43.289Z,9.55
2023-04-10T05:35:35.871Z,9.56
2023-04-10T05:38:37.752Z,9.64
2023-04-10T05:41:26.689Z,9.50
2023-04-10T05:44:21.468Z,9.61
2023-04-10T05:47:09.900Z,9.69
2023-04-10T05:49:44.918Z,9.75
2023-04-10T05:52:40.131Z,9.77
2023-04-10T05:55:35.005Z,9.84
2023-04-10T05:58:34.297Z,9.89
2023-04-10T06:01:30.278Z,9.95
2023-04-10T06:04:05.730Z,9.97
2023-04-10T06:06:38.697Z,10.05
2023-04-10T06:09:11.395Z,10.10
2023-04-10T06:11:43.412Z,10.15
2023-04-10T06:14:15.719Z,10.19
2023-04-10T06:16:49.004Z,10.20
2023-04-10T06:19:21.353Z,10.26
2023-04-10T06:21:54.597Z,10.35
2023-04-10T06:24:27.139Z,10.40
2023-04-10T06:27:00.992Z,10.44
2023-04-10T06:29:33.779Z,10.48
2023-04-10T06:32:06.637Z,10.54
2023-04-10T06:34:41.641Z,10.58
2023-04-10T06:37:13.945Z,10.59
2023-04-10T06:39:46.689Z,10.65
2023-04-10T06:42:18.876Z,10.72
2023-04-10T06:45:00.889Z,10.76
2023-04-10T06:47:33.280Z,10.84
2023-04-10T06:50:06.019Z,10.87
2023-04-10T06:52:38.131Z,10.92
2023-04-10T06:55:12.858Z,10.95
2023-04-10T06:57:43.613Z,11.01
2023-04-10T07:00:17.353Z,11.00
2023-04-10T07:02:49.928Z,11.11
2023-04-10T07:05:23.758Z,11.17
2023-04-10T07:07:56.127Z,11.24
2023-04-10T07:10:28.283Z,11.33
2023-04-10T07:13:00.687Z,11.39
2023-04-10T07:15:32.838Z,11.45
2023-04-10T07:18:05.456Z,11.51
2023-04-10T07:20:38.267Z,11.50
2023-04-10T07:23:10.697Z,11.64
2023-04-10T07:25:43.550Z,11.69
2023-04-10T07:28:15.892Z,11.78
2023-04-10T07:30:48.741Z,11.82
2023-04-10T07:33:21.628Z,11.89
2023-04-10T07:35:53.984Z,11.95
2023-04-10T07:38:27.331Z,12.01
2023-04-10T07:41:02.520Z,12.12
2023-04-10T07:43:34.804Z,12.19
2023-04-10T07:46:07.736Z,12.21
2023-04-10T07:48:40.020Z,12.35
2023-04-10T07:51:12.383Z,12.44
2023-04-10T07:53:44.551Z,12.51
2023-04-10T07:56:21.474Z,12.57
2023-04-10T07:58:54.304Z,12.62
2023-04-10T08:01:27.571Z,12.67
2023-04-10T08:04:01.541Z,12.70
2023-04-10T08:06:35.816Z,12.77
2023-04-10T08:09:08.264Z,12.83
2023-04-10T08:11:40.508Z,12.87
2023-04-10T08:14:13.631Z,12.93
2023-04-10T08:16:50.757Z,13.00
2023-04-10T08:19:23.808Z,12.98
2023-04-10T08:21:56.957Z,13.10
2023-04-10T08:24:29.544Z,13.12
2023-04-10T08:27:02.118Z,13.18
2023-04-10T08:29:34.487Z,13.22
2023-04-10T08:32:07.378Z,13.23
2023-04-10T08:34:40.055Z,13.29
2023-04-10T08:37:12.304Z,13.31
2023-04-10T08:39:44.854Z,13.38
2023-04-10T08:42:17.264Z,13.42
2023-04-10T08:44:52.330Z,13.46
2023-04-10T08:47:29.080Z,13.51
2023-04-10T08:50:06.277Z,13.53
2023-04-10T08:52:44.068Z,13.59
2023-04-10T08:55:17.323Z,13.66
2023-04-10T08:58:00.380Z,13.71
2023-04-10T09:00:38.678Z,13.81
2023-04-10T09:03:14.345Z,13.82
2023-04-10T09:05:47.093Z,13.92
2023-04-10T09:08:19.188Z,14.00
2023-04-10T09:10:53.905Z,14.13
2023-04-10T09:13:40.883Z,14.12
2023-04-10T09:16:15.022Z,14.14
2023-04-10T09:18:50.769Z,14.25
2023-04-10T09:21:23.585Z,14.37
2023-04-10T09:24:03.084Z,14.42
2023-04-10T09:26:35.789Z,14.50
2023-04-10T09:29:11.041Z,14.48
2023-04-10T09:31:43.977Z,14.63
2023-04-10T09:34:18.398Z,14.65
2023-04-10T09:36:58.043Z,14.80
2023-04-10T09:39:41.091Z,14.90
2023-04-10T09:42:14.999Z,14.94
2023-04-10T09:44:47.448Z,14.97
2023-04-10T09:47:21.931Z,15.13
2023-04-10T09:49:55.791Z,15.25
2023-04-10T09:52:29.469Z,15.23
2023-04-10T09:55:04.104Z,15.32
2023-04-10T09:57:35.829Z,15.44
2023-04-10T10:00:10.086Z,15.35
2023-04-10T10:02:43.284Z,15.45
2023-04-10T10:05:16.684Z,15.45
2023-04-10T10:07:49.338Z,15.53
2023-04-10T10:10:21.955Z,15.57
2023-04-10T10:12:57.703Z,15.77
2023-04-10T10:15:36.366Z,15.73
2023-04-10T10:18:21.840Z,15.90
2023-04-10T10:20:54.670Z,15.94
2023-04-10T10:23:28.550Z,16.01
2023-04-10T10:26:03.247Z,16.14
2023-04-10T10:28:37.309Z,16.24
2023-04-10T10:31:10.024Z,16.08
2023-04-10T10:33:43.052Z,16.27
2023-04-10T10:36:18.092Z,16.50
2023-04-10T10:38:59.900Z,16.50
2023-04-10T10:41:39.476Z,16.61
2023-04-10T10:44:15.879Z,16.67
2023-04-10T10:46:52.211Z,16.87
2023-04-10T10:49:44.603Z,16.95
2023-04-10T10:52:16.661Z,17.15
2023-04-10T10:54:58.863Z,17.22
2023-04-10T10:57:52.091Z,17.30
2023-04-10T11:00:26.138Z,17.26
2023-04-10T11:03:28.454Z,17.16
2023-04-10T11:06:03.103Z,17.33
2023-04-10T11:08:48.911Z,17.26
2023-04-10T11:11:23.704Z,17.40
2023-04-10T11:14:19.935Z,17.39
2023-04-10T11:16:52.582Z,17.24
2023-04-10T11:19:26.431Z,17.33
2023-04-10T11:22:08.139Z,17.41
2023-04-10T11:25:00.609Z,17.58
2023-04-10T11:27:45.633Z,17.53
2023-04-10T11:30:37.986Z,17.51
2023-04-10T11:33:10.372Z,17.42
2023-04-10T11:35:42.932Z,17.58
2023-04-10T11:38:17.553Z,17.46
2023-04-10T11:41:05.393Z,17.59
2023-04-10T11:43:38.144Z,17.89
2023-04-10T11:46:10.825Z,18.01
2023-04-10T11:48:42.975Z,17.90
2023-04-10T11:51:15.978Z,17.98
2023-04-10T11:53:48.372Z,18.00
2023-04-10T11:56:24.033Z,18.17
2023-04-10T11:58:57.149Z,18.31
2023-04-10T12:01:29.671Z,18.16
2023-04-10T12:04:02.746Z,18.34
2023-04-10T12:06:35.092Z,18.39
2023-04-10T12:09:16.499Z,18.33
2023-04-10T12:11:56.962Z,18.34
2023-04-10T12:14:36.039Z,18.30
2023-04-10T12:17:10.004Z,18.47
2023-04-10T12:19:42.716Z,18.44
2023-04-10T12:22:15.879Z,18.60
2023-04-10T12:24:49.891Z,18.69
2023-04-10T12:27:23.267Z,18.59
2023-04-10T12:29:57.315Z,18.68
2023-04-10T12:32:29.533Z,18.62
2023-04-10T12:35:02.424Z,18.68
2023-04-10T12:37:52.334Z,18.74
2023-04-10T12:40:24.611Z,18.84
2023-04-10T12:42:57.695Z,18.82
2023-04-10T12:45:44.184Z,18.79
2023-04-10T12:48:25.486Z,18.81
2023-04-10T12:50:57.929Z,18.95
2023-04-10T12:53:30.402Z,19.05
2023-04-10T12:56:06.463Z,19.07
2023-04-10T12:58:39.024Z,19.16
2023-04-10T13:01:14.307Z,19.12
2023-04-10T13:03:49.019Z,19.14
2023-04-10T13:06:19.686Z,19.19
2023-04-10T13:08:53.005Z,19.26
2023-04-10T13:11:25.586Z,19.37
2023-04-10T13:13:57.762Z,19.38
2023-04-10T13:16:30.374Z,19.42
2023-04-10T13:19:02.587Z,19.40
2023-04-10T13:21:35.284Z,19.47
2023-04-10T13:24:07.580Z,19.38
2023-04-10T13:26:39.943Z,19.48
2023-04-10T13:29:12.315Z,19.48
2023-04-10T13:31:44.566Z,19.52
2023-04-10T13:34:17.012Z,19.59
2023-04-10T13:36:50.237Z,19.60
2023-04-10T13:39:22.410Z,19.64
2023-04-10T13:41:54.784Z,19.68
2023-04-10T13:44:27.653Z,19.57
2023-04-10T13:47:00.658Z,19.58
2023-04-10T13:49:32.848Z,19.68
2023-04-10T13:52:05.337Z,19.75
2023-04-10T13:54:37.688Z,19.81
2023-04-10T13:57:10.254Z,19.73
2023-04-10T13:59:43.099Z,19.86
2023-04-10T14:02:15.610Z,19.84
2023-04-10T14:04:47.821Z,19.97
2023-04-10T14:07:21.004Z,19.99
2023-04-10T14:09:53.429Z,19.96
2023-04-10T14:12:25.715Z,19.85
2023-04-10T14:14:57.950Z,19.95
2023-04-10T14:17:30.736Z,19.95
2023-04-10T14:20:03.007Z,20.02
2023-04-10T14:22:35.293Z,20.08
2023-04-10T14:25:13.541Z,20.05
2023-04-10T14:27:46.168Z,20.28
2023-04-10T14:30:18.469Z,20.21
2023-04-10T14:32:51.004Z,20.20
2023-04-10T14:35:23.435Z,20.20
2023-04-10T14:37:55.881Z,20.14
2023-04-10T14:40:28.301Z,20.21
2023-04-10T14:43:01.040Z,20.18
2023-04-10T14:45:33.788Z,20.13
2023-04-10T14:48:07.000Z,20.05
2023-04-10T14:50:39.463Z,19.92
2023-04-10T14:53:12.027Z,19.83
2023-04-10T14:55:44.477Z,19.72
2023-04-10T14:58:16.681Z,19.72
2023-04-10T15:00:50.867Z,19.70
2023-04-10T15:03:25.123Z,19.68
2023-04-10T15:06:02.380Z,19.61
2023-04-10T15:08:34.737Z,19.58
2023-04-10T15:11:07.384Z,19.52
2023-04-10T15:13:39.711Z,19.48
2023-04-10T15:16:12.526Z,19.37
2023-04-10T15:18:47.796Z,19.28
2023-04-10T15:21:20.813Z,19.19
2023-04-10T15:23:53.323Z,19.12
2023-04-10T15:26:25.790Z,19.00
2023-04-10T15:28:58.241Z,18.94
2023-04-10T15:31:30.566Z,18.90
2023-04-10T15:34:02.811Z,18.76
2023-04-10T15:36:35.181Z,18.73
2023-04-10T15:39:07.597Z,18.74
2023-04-10T15:41:40.570Z,18.71
2023-04-10T15:44:12.701Z,18.60
2023-04-10T15:46:47.163Z,18.50
2023-04-10T15:49:29.769Z,18.44
2023-04-10T15:52:07.802Z,18.29
2023-04-10T15:54:41.444Z,18.39
2023-04-10T15:57:13.781Z,18.32
2023-04-10T15:59:46.188Z,18.33
2023-04-10T16:02:18.776Z,18.36
2023-04-10T16:04:51.252Z,18.37
2023-04-10T16:07:23.826Z,18.33
2023-04-10T16:09:57.225Z,18.31
2023-04-10T16:12:29.502Z,18.27
2023-04-10T16:15:02.193Z,18.27
2023-04-10T16:17:34.495Z,18.31
2023-04-10T16:20:09.558Z,18.25
2023-04-10T16:22:40.244Z,18.26
2023-04-10T16:25:12.870Z,18.24
2023-04-10T16:27:44.898Z,18.25
2023-04-10T16:30:18.283Z,18.30
2023-04-10T16:32:52.568Z,18.29
2023-04-10T16:35:24.980Z,18.33
2023-04-10T16:37:57.310Z,18.35
2023-04-10T16:40:32.728Z,18.31
2023-04-10T16:43:05.145Z,18.22
2023-04-10T16:45:38.383Z,18.22
2023-04-10T16:48:10.809Z,18.18
2023-04-10T16:50:43.856Z,18.15
2023-04-10T16:53:16.280Z,18.14
2023-04-10T16:55:57.554Z,18.17
2023-04-10T16:58:32.382Z,18.16
2023-04-10T17:01:15.850Z,18.14
2023-04-10T17:03:49.119Z,18.15
2023-04-10T17:06:21.634Z,18.14
2023-04-10T17:08:54.297Z,18.06
2023-04-10T17:11:27.616Z,18.12
2023-04-10T17:14:00.091Z,18.06
2023-04-10T17:16:34.242Z,18.00
2023-04-10T17:19:06.805Z,17.92
2023-04-10T17:21:39.591Z,17.74
2023-04-10T17:24:11.880Z,17.68
2023-04-10T17:26:43.961Z,17.56
2023-04-10T17:29:16.320Z,17.40
2023-04-10T17:31:48.931Z,17.29
2023-04-10T17:34:21.244Z,17.13
2023-04-10T17:36:54.202Z,17.01
2023-04-10T17:39:27.241Z,16.88
2023-04-10T17:41:59.579Z,16.75
2023-04-10T17:44:35.257Z,16.61
2023-04-10T17:47:07.840Z,16.48
2023-04-10T17:49:40.980Z,16.43
2023-04-10T17:52:13.756Z,16.33
2023-04-10T17:54:45.782Z,16.26
2023-04-10T17:57:18.137Z,16.16
2023-04-10T17:59:50.405Z,15.98
2023-04-10T18:02:23.816Z,15.97
2023-04-10T18:04:57.007Z,15.86
2023-04-10T18:07:29.667Z,15.78
2023-04-10T18:10:02.092Z,15.74
2023-04-10T18:12:34.600Z,15.69
2023-04-10T18:15:09.397Z,15.64
2023-04-10T18:17:40.146Z,15.59
2023-04-10T18:20:14.878Z,15.54
2023-04-10T18:22:48.336Z,15.48
2023-04-10T18:25:20.960Z,15.40
2023-04-10T18:28:12.986Z,15.31
2023-04-10T18:30:45.736Z,15.29
2023-04-10T18:33:22.390Z,15.23
2023-04-10T18:35:57.314Z,15.19
2023-04-10T18:38:28.385Z,15.14
2023-04-10T18:41:01.136Z,14.96
2023-04-10T18:43:33.215Z,15.03
2023-04-10T18:46:06.453Z,14.99
2023-04-10T18:48:44.029Z,14.93
2023-04-10T18:51:16.350Z,14.87
2023-04-10T18:53:49.506Z,14.81
2023-04-10T18:56:21.700Z,14.74
2023-04-10T18:58:54.139Z,14.68
2023-04-10T19:01:26.536Z,14.61
2023-04-10T19:03:59.179Z,14.54
2023-04-10T19:06:32.489Z,14.50
2023-04-10T19:09:05.524Z,14.47
2023-04-10T19:11:37.936Z,14.36
2023-04-10T19:14:10.512Z,14.36
2023-04-10T19:16:43.059Z,14.32
2023-04-10T19:19:15.425Z,14.28
2023-04-10T19:21:47.776Z,14.24
2023-04-10T19:24:20.852Z,14.20
2023-04-10T19:26:56.283Z,14.15
2023-04-10T19:29:28.890Z,13.99
2023-04-10T19:32:01.183Z,14.00
2023-04-10T19:34:33.626Z,13.94
2023-04-10T19:37:05.956Z,13.82
2023-04-10T19:39:38.375Z,13.88
2023-04-10T19:42:10.810Z,13.84
2023-04-10T19:44:43.655Z,13.83
2023-04-10T19:47:18.019Z,13.81
2023-04-10T19:49:50.517Z,13.80
2023-04-10T19:52:23.099Z,13.74
2023-04-10T19:54:55.764Z,13.73
2023-04-10T19:57:28.454Z,13.72
2023-04-10T20:00:01.075Z,13.71
2023-04-10T20:02:33.850Z,13.62
2023-04-10T20:05:07.116Z,13.67
2023-04-10T20:07:39.758Z,13.66
2023-04-10T20:10:12.742Z,13.64
2023-04-10T20:12:45.031Z,13.63
2023-04-10T20:15:17.668Z,13.60
2023-04-10T20:17:50.007Z,13.58
2023-04-10T20:20:22.371Z,13.56
2023-04-10T20:22:55.237Z,13.47
2023-04-10T20:25:27.598Z,13.42
2023-04-10T20:27:59.683Z,13.47
2023-04-10T20:30:32.038Z,13.43
2023-04-10T20:33:04.415Z,13.40
2023-04-10T20:35:36.911Z,13.35
2023-04-10T20:38:09.194Z,13.28
2023-04-10T20:40:42.338Z,13.28
2023-04-10T20:43:15.205Z,13.23
2023-04-10T20:45:47.649Z,13.21
2023-04-10T20:48:19.976Z,13.19
2023-04-10T20:50:52.236Z,13.02
2023-04-10T20:53:24.803Z,13.14
2023-04-10T20:55:57.418Z,13.25
2023-04-10T20:58:30.128Z,13.33
2023-04-10T21:01:02.432Z,13.38
2023-04-10T21:03:34.833Z,13.36
2023-04-10T21:06:08.935Z,13.42
2023-04-10T21:08:41.242Z,13.47
2023-04-10T21:11:13.407Z,13.56
2023-04-10T21:13:45.733Z,13.59
2023-04-10T21:16:17.903Z,13.55
2023-04-10T21:18:53.297Z,13.70
2023-04-10T21:21:27.337Z,13.73
2023-04-10T21:23:59.751Z,13.73
2023-04-10T21:26:32.754Z,13.71
2023-04-10T21:29:05.690Z,13.61
2023-04-10T21:31:37.842Z,13.71
2023-04-10T21:34:11.555Z,13.75
2023-04-10T21:36:43.762Z,13.72
2023-04-10T21:39:16.168Z,13.77
2023-04-10T21:41:48.824Z,13.85
2023-04-10T21:44:21.145Z,13.79
2023-04-10T21:46:53.804Z,13.80
2023-04-10T21:49:26.124Z,13.88
2023-04-10T21:51:59.273Z,13.84
2023-04-10T21:54:32.081Z,13.91
2023-04-10T21:57:04.780Z,13.93
2023-04-10T21:59:37.457Z,13.95
2023-04-10T22:02:10.738Z,13.90
2023-04-10T22:04:53.983Z,13.85
2023-04-10T22:07:27.206Z,13.86
2023-04-10T22:10:01.110Z,13.85
2023-04-10T22:12:33.430Z,13.87
2023-04-10T22:15:06.934Z,13.90
2023-04-10T22:17:39.187Z,13.90
2023-04-10T22:20:12.877Z,13.81
2023-04-10T22:22:45.322Z,13.89
2023-04-10T22:25:17.975Z,13.87
2023-04-10T22:27:50.596Z,13.74
2023-04-10T22:30:22.765Z,13.77
2023-04-10T22:32:58.227Z,13.82
2023-04-10T22:35:31.253Z,13.81
2023-04-10T22:38:03.911Z,13.82
2023-04-10T22:40:36.340Z,13.81
2023-04-10T22:43:08.543Z,13.77
2023-04-10T22:45:42.550Z,13.73
2023-04-10T22:48:14.975Z,13.61
2023-04-10T22:50:47.402Z,13.57
2023-04-10T22:53:19.703Z,13.63
2023-04-10T22:55:52.127Z,13.66
2023-04-10T22:58:24.588Z,13.63
2023-04-10T23:00:57.152Z,13.62
2023-04-10T23:03:29.833Z,13.64
2023-04-10T23:06:02.241Z,13.55
2023-04-10T23:08:34.917Z,13.55
2023-04-10T23:11:07.628Z,13.53
2023-04-10T23:13:39.785Z,13.49
2023-04-10T23:16:12.986Z,13.47
2023-04-10T23:18:45.630Z,13.44
2023-04-10T23:21:18.094Z,13.40
2023-04-10T23:23:50.189Z,13.20
2023-04-10T23:26:22.835Z,13.32
2023-04-10T23:28:55.652Z,13.32
2023-04-10T23:31:28.108Z,13.23
2023-04-10T23:34:00.836Z,13.23
2023-04-10T23:36:33.360Z,13.25
2023-04-10T23:39:05.760Z,13.26
2023-04-10T23:41:38.012Z,13.21
2023-04-10T23:44:10.214Z,13.21
2023-04-10T23:46:42.532Z,13.16
2023-04-10T23:49:14.724Z,13.16
2023-04-10T23:51:46.797Z,13.08
2023-04-10T23:54:18.883Z,13.05
2023-04-10T23:56:51.301Z,13.04
2023-04-10T23:59:23.557Z,13.01
